Crater Lake, OR

9:57 PM PDT on September 17, 2014 (GMT -0700)
Sexton Summit | Change Station
CLOSE
Current Station
Airport
Location: Sexton Summit,
Elevation: 3839 ft
Nearby Weather Stations

Elev 3839 ft 42.60 °N, 123.36 °W | Updated 1 hour ago

Overcast
Overcast
56 °F
Feels Like 56 °F
N
9
Wind Variable Wind from SSE

Today
High -- | Low -- °F
--% Chance of Precip.
Yesterday
High -- | Low -- °F
Precip. -- in
6:50 AM 7:14 PM
Waning Crescent, 30% visible
Pressure 29.71 in
Visibility 10.0 miles
Clouds Few 10000 ft
Dew Point 47 °F
Humidity 72%
Rainfall 0.08 in
Snow Depth 0 in , 1 in , 0 in
UV 0 out of 12
Pollen 4.20 out of 12
Air Quality Not available.
Flu Activity Not available.
METAR KSXT 180356Z AUTO 16008KT 10SM FEW100 13/08 A2981 RMK AO2 RAE06 SLP059 P0000 T01330083

More Conditions Fewer Conditions

Pressure 29.71 in
Visibility 10.0 miles
Clouds Few 10000 ft
Dew Point 47 °F
Humidity 72%
Rainfall 0.08 in
Snow Depth 0 in , 1 in , 0 in
UV 0 out of 12
Pollen 4.20 out of 12
Air Quality Not available.
Flu Activity Not available.
METAR KSXT 180356Z AUTO 16008KT 10SM FEW100 13/08 A2981 RMK AO2 RAE06 SLP059 P0000 T01330083

More Conditions Fewer Conditions

10-Day Weather Forecast

Almanac

Astronomy

Sep. 17, 2014 Rise Set
Actual Time 6:50 AM PDT 7:14 PM PDT
Civil Twilight 6:22 AM PDT 7:42 PM PDT
Nautical Twilight 5:48 AM PDT 8:16 PM PDT
Astronomical Twilight 5:14 AM PDT 8:50 PM PDT
Moon 12:48 AM PDT (9/17) 3:34 PM PDT (9/17)
Length of Visible Light 13h 20m
Length of Day
12h 24m
Tomorrow will be 2m 54s shorter.
Waning Crescent, 30% of the Moon is Illuminated
Sep 18
Waning Crescent
Sep 24
New
Oct 1
First Quarter
Oct 8
Full
Oct 15
Last Quarter

Yesterday's Extremes

State Highs State Lows

Community

WunderPhotos

Upload Photos

1,754,295 photos uploaded!

Nearby

Snow Depth

Station Depth Elevation
Santiam Junction 0 in 3750 ft
Arbuckle Mountain 1 in 5400 ft
Billie Creek Divide 0 in 5300 ft
Roaring River 0 in 4900 ft
Lucky Strike 2 in 5050 ft

Earthquake Activity

City Distance Mag. Time & Date
No recent earthquake activity has been reported nearby.
Minimum magnitude displayed is 2.5.

Coastal Water Temperatures

Place Temperature
No Stations Reporting

Nearby Weather Stations